createdAt,value
2022-08-29T00:01:23.324Z,6.35
2022-08-29T00:03:50.714Z,6.35
2022-08-29T00:06:18.367Z,6.03
2022-08-29T00:08:45.443Z,6.63
2022-08-29T00:11:13.595Z,6.43
2022-08-29T00:13:40.932Z,6.13
2022-08-29T00:16:08.930Z,6.50
2022-08-29T00:18:36.481Z,5.75
2022-08-29T00:21:04.621Z,6.10
2022-08-29T00:23:31.944Z,6.18
2022-08-29T00:25:59.162Z,6.32
2022-08-29T00:28:26.615Z,6.18
2022-08-29T00:30:53.811Z,6.20
2022-08-29T00:33:21.191Z,6.28
2022-08-29T00:35:48.248Z,6.70
2022-08-29T00:38:18.249Z,5.70
2022-08-29T00:40:53.019Z,5.10
2022-08-29T00:43:26.028Z,5.90
2022-08-29T00:46:08.343Z,5.68
2022-08-29T00:48:39.253Z,5.70
2022-08-29T00:51:12.968Z,6.00
2022-08-29T00:53:44.915Z,5.70
2022-08-29T00:56:15.000Z,5.32
2022-08-29T00:58:50.266Z,5.65
2022-08-29T01:01:17.862Z,5.55
2022-08-29T01:03:46.427Z,5.25
2022-08-29T01:06:14.017Z,5.78
2022-08-29T01:08:42.496Z,4.72
2022-08-29T01:11:32.641Z,5.93
2022-08-29T01:14:01.444Z,5.68
2022-08-29T01:16:30.203Z,5.30
2022-08-29T01:19:03.614Z,5.95
2022-08-29T01:24:10.381Z,5.80
2022-08-29T01:26:37.697Z,5.82
2022-08-29T01:29:05.181Z,6.13
2022-08-29T01:31:56.247Z,5.65
2022-08-29T01:34:27.046Z,5.90
2022-08-29T01:37:00.484Z,6.25
2022-08-29T01:39:31.511Z,6.65
2022-08-29T01:42:04.076Z,5.97
2022-08-29T01:44:31.744Z,6.67
2022-08-29T01:47:03.192Z,6.55
2022-08-29T01:49:33.231Z,5.93
2022-08-29T01:52:01.931Z,6.18
2022-08-29T01:54:30.391Z,7.07
2022-08-29T01:56:57.764Z,6.38
2022-08-29T01:59:28.183Z,5.38
2022-08-29T02:02:18.470Z,5.80
2022-08-29T02:04:47.312Z,6.43
2022-08-29T02:07:17.723Z,6.45
2022-08-29T02:09:46.081Z,5.53
2022-08-29T02:12:14.955Z,6.22
2022-08-29T02:14:42.925Z,5.93
2022-08-29T02:17:10.413Z,5.68
2022-08-29T02:19:39.030Z,6.28
2022-08-29T02:22:08.140Z,6.30
2022-08-29T02:24:35.400Z,6.72
2022-08-29T02:27:02.767Z,6.38
2022-08-29T02:29:37.044Z,6.10
2022-08-29T02:32:14.910Z,6.35
2022-08-29T02:34:47.768Z,5.93
2022-08-29T02:37:16.385Z,7.00
2022-08-29T02:39:43.659Z,6.47
2022-08-29T02:42:10.912Z,6.40
2022-08-29T02:44:38.430Z,6.90
2022-08-29T02:47:05.846Z,5.85
2022-08-29T02:49:32.976Z,6.45
2022-08-29T02:52:02.579Z,6.13
2022-08-29T02:54:29.941Z,6.88
2022-08-29T02:56:57.153Z,6.82
2022-08-29T02:59:24.228Z,6.45
2022-08-29T03:01:53.763Z,6.43
2022-08-29T03:04:21.093Z,6.60
2022-08-29T03:06:48.312Z,7.22
2022-08-29T03:09:15.476Z,6.93
2022-08-29T03:11:42.743Z,6.85
2022-08-29T03:14:09.845Z,7.00
2022-08-29T03:16:37.193Z,6.22
2022-08-29T03:19:04.353Z,6.75
2022-08-29T03:21:33.495Z,6.20
2022-08-29T03:24:00.637Z,6.32
2022-08-29T03:26:27.755Z,7.60
2022-08-29T03:28:54.958Z,6.70
2022-08-29T03:31:22.358Z,7.50
2022-08-29T03:33:49.941Z,7.07
2022-08-29T03:36:17.169Z,6.55
2022-08-29T03:38:46.761Z,6.43
2022-08-29T03:41:25.560Z,6.93
2022-08-29T03:43:55.441Z,6.68
2022-08-29T03:46:22.951Z,6.88
2022-08-29T03:48:50.251Z,6.68
2022-08-29T03:51:18.772Z,6.78
2022-08-29T03:53:46.915Z,6.93
2022-08-29T03:56:18.913Z,7.22
2022-08-29T03:58:52.541Z,7.03
2022-08-29T04:01:24.655Z,6.53
2022-08-29T04:03:52.432Z,6.72
2022-08-29T04:06:20.351Z,7.40
2022-08-29T04:08:48.116Z,6.68
2022-08-29T04:11:16.872Z,7.45
2022-08-29T04:13:44.429Z,6.80
2022-08-29T04:16:14.232Z,7.20
2022-08-29T04:18:41.737Z,8.07
2022-08-29T04:21:09.952Z,7.22
2022-08-29T04:23:38.540Z,7.25
2022-08-29T04:26:34.877Z,7.30
2022-08-29T04:28:59.200Z,6.82
2022-08-29T04:31:26.506Z,7.50
2022-08-29T04:33:53.701Z,7.38
2022-08-29T04:36:21.068Z,8.05
2022-08-29T04:38:48.248Z,7.78
2022-08-29T04:41:15.493Z,7.43
2022-08-29T04:43:45.526Z,7.63
2022-08-29T04:46:23.582Z,8.10
2022-08-29T04:48:53.209Z,8.02
2022-08-29T04:51:21.436Z,7.10
2022-08-29T04:53:51.060Z,8.43
2022-08-29T04:56:18.883Z,8.18
2022-08-29T04:58:47.355Z,7.00
2022-08-29T05:01:16.543Z,8.10
2022-08-29T05:03:44.251Z,8.25
2022-08-29T05:06:14.185Z,8.98
2022-08-29T05:08:43.463Z,8.02
2022-08-29T05:11:13.720Z,8.52
2022-08-29T05:13:42.407Z,7.70
2022-08-29T05:16:11.869Z,7.82
2022-08-29T05:18:39.929Z,7.55
2022-08-29T05:21:07.818Z,8.20
2022-08-29T05:23:35.026Z,15.80
2022-08-29T05:26:04.569Z,11.30
2022-08-29T05:28:33.808Z,10.18
2022-08-29T05:31:01.147Z,13.82
2022-08-29T05:33:28.478Z,9.40
2022-08-29T05:35:57.775Z,10.00
2022-08-29T05:38:25.102Z,9.25
2022-08-29T05:40:52.416Z,8.35
2022-08-29T05:43:19.897Z,8.88
2022-08-29T05:45:47.181Z,8.05
2022-08-29T05:48:15.246Z,8.02
2022-08-29T05:50:44.236Z,7.60
2022-08-29T05:53:14.358Z,8.63
2022-08-29T05:55:44.528Z,8.13
2022-08-29T05:58:12.254Z,7.60
2022-08-29T06:00:41.023Z,9.07
2022-08-29T06:03:10.663Z,7.45
2022-08-29T06:05:38.839Z,8.30
2022-08-29T06:08:07.262Z,7.57
2022-08-29T06:10:34.843Z,7.50
2022-08-29T06:13:02.127Z,7.95
2022-08-29T06:15:29.927Z,8.20
2022-08-29T06:17:57.166Z,7.35
2022-08-29T06:20:24.364Z,7.13
2022-08-29T06:22:51.557Z,7.82
2022-08-29T06:28:05.868Z,7.15
2022-08-29T06:30:33.780Z,8.57
2022-08-29T06:33:01.913Z,7.85
2022-08-29T06:35:29.211Z,7.13
2022-08-29T06:37:56.412Z,7.40
2022-08-29T06:40:23.652Z,6.82
2022-08-29T06:42:50.947Z,7.10
2022-08-29T06:45:18.359Z,7.90
2022-08-29T06:47:47.774Z,7.32
2022-08-29T06:50:17.020Z,6.28
2022-08-29T06:52:47.188Z,6.88
2022-08-29T06:55:14.859Z,7.90
2022-08-29T06:57:45.600Z,7.55
2022-08-29T07:00:21.402Z,6.68
2022-08-29T07:02:52.987Z,6.72
2022-08-29T07:05:22.038Z,7.10
2022-08-29T07:07:49.947Z,6.30
2022-08-29T07:10:22.292Z,6.82
2022-08-29T07:12:51.624Z,8.20
2022-08-29T07:15:20.092Z,7.00
2022-08-29T07:17:47.665Z,7.07
2022-08-29T07:20:16.215Z,7.20
2022-08-29T07:22:43.548Z,6.55
2022-08-29T07:25:10.731Z,6.45
2022-08-29T07:27:39.087Z,6.43
2022-08-29T07:30:07.018Z,6.90
2022-08-29T07:32:34.238Z,5.22
2022-08-29T07:35:01.415Z,5.35
2022-08-29T07:37:28.601Z,4.65
2022-08-29T07:39:56.011Z,5.18
2022-08-29T07:42:23.429Z,5.20
2022-08-29T07:44:50.635Z,4.88
2022-08-29T07:47:17.822Z,4.25
2022-08-29T07:49:45.012Z,4.38
2022-08-29T07:52:12.224Z,4.25
2022-08-29T07:54:39.271Z,3.92
2022-08-29T07:57:06.510Z,3.08
2022-08-29T07:59:33.777Z,3.40
2022-08-29T08:02:01.048Z,3.30
2022-08-29T08:04:28.420Z,2.63
2022-08-29T08:06:55.920Z,3.22
2022-08-29T08:09:23.007Z,3.08
2022-08-29T08:11:50.647Z,3.30
2022-08-29T08:14:17.967Z,2.63
2022-08-29T08:16:45.176Z,2.60
2022-08-29T08:19:14.374Z,2.88
2022-08-29T08:21:49.420Z,2.95
2022-08-29T08:24:19.771Z,2.00
2022-08-29T08:26:49.180Z,3.25
2022-08-29T08:29:16.903Z,2.92
2022-08-29T08:31:45.849Z,2.60
2022-08-29T08:34:15.675Z,2.88
2022-08-29T08:36:44.981Z,3.38
2022-08-29T08:39:13.296Z,3.20
2022-08-29T08:41:54.793Z,3.00
2022-08-29T08:44:21.820Z,2.60
2022-08-29T08:46:52.598Z,2.00
2022-08-29T08:49:47.686Z,2.03
2022-08-29T08:52:53.438Z,2.17
2022-08-29T08:55:32.009Z,2.03
2022-08-29T08:58:26.139Z,2.20
2022-08-29T09:01:03.610Z,2.00
2022-08-29T09:04:04.198Z,2.05
2022-08-29T09:06:56.133Z,1.90
2022-08-29T09:09:38.982Z,2.15
2022-08-29T09:12:15.822Z,2.80
2022-08-29T09:15:09.565Z,2.38
2022-08-29T09:17:44.447Z,2.20
2022-08-29T09:20:22.353Z,2.25
2022-08-29T09:23:05.966Z,2.08
2022-08-29T09:25:36.200Z,2.00
2022-08-29T09:28:08.724Z,1.67
2022-08-29T09:30:39.082Z,2.45
2022-08-29T09:33:10.432Z,2.20
2022-08-29T09:35:42.192Z,1.95
2022-08-29T09:38:10.974Z,2.45
2022-08-29T09:40:58.425Z,2.25
2022-08-29T09:43:50.504Z,2.70
2022-08-29T09:46:26.895Z,2.63
2022-08-29T09:49:00.205Z,2.60
2022-08-29T09:54:26.497Z,2.67
2022-08-29T09:57:09.168Z,2.35
2022-08-29T09:59:41.849Z,2.13
2022-08-29T10:02:28.823Z,2.35
2022-08-29T10:05:01.476Z,2.10
2022-08-29T10:07:47.712Z,2.28
2022-08-29T10:10:19.245Z,2.63
2022-08-29T10:13:00.508Z,2.20
2022-08-29T10:15:49.909Z,2.33
2022-08-29T10:18:49.724Z,2.15
2022-08-29T10:21:31.861Z,2.35
2022-08-29T10:24:08.604Z,2.10
2022-08-29T10:26:50.992Z,2.47
2022-08-29T10:29:31.865Z,2.85
2022-08-29T10:32:23.932Z,2.33
2022-08-29T10:35:16.091Z,2.38
2022-08-29T10:38:04.924Z,2.60
2022-08-29T10:40:49.664Z,2.30
2022-08-29T10:43:46.215Z,2.30
2022-08-29T10:46:33.072Z,2.00
2022-08-29T10:49:13.794Z,2.58
2022-08-29T10:51:51.774Z,2.33
2022-08-29T10:54:42.094Z,2.25
2022-08-29T10:57:09.739Z,2.80
2022-08-29T11:00:02.842Z,2.55
2022-08-29T11:02:47.372Z,2.22
2022-08-29T11:05:24.944Z,2.72
2022-08-29T11:08:05.753Z,2.45
2022-08-29T11:10:40.621Z,2.42
2022-08-29T11:13:19.285Z,2.40
2022-08-29T11:16:12.974Z,2.60
2022-08-29T11:21:19.182Z,2.65
2022-08-29T11:23:48.172Z,2.40
2022-08-29T11:26:31.824Z,2.60
2022-08-29T11:29:05.307Z,2.40
2022-08-29T11:31:35.544Z,2.67
2022-08-29T11:34:28.650Z,2.78
2022-08-29T11:37:26.490Z,2.78
2022-08-29T11:40:15.085Z,2.85
2022-08-29T11:42:52.752Z,2.50
2022-08-29T11:45:36.587Z,2.67
2022-08-29T11:48:10.492Z,2.83
2022-08-29T11:50:39.366Z,3.28
2022-08-29T11:53:22.701Z,3.20
2022-08-29T11:56:14.437Z,2.55
2022-08-29T11:58:50.382Z,2.42
2022-08-29T12:01:36.022Z,2.63
2022-08-29T12:04:06.564Z,2.58
2022-08-29T12:06:51.547Z,2.80
2022-08-29T12:09:37.395Z,2.45
2022-08-29T12:12:04.649Z,2.72
2022-08-29T12:14:39.622Z,2.72
2022-08-29T12:17:51.277Z,2.53
2022-08-29T12:20:32.187Z,2.88
2022-08-29T12:23:03.835Z,2.28
2022-08-29T12:25:43.801Z,2.55
2022-08-29T12:28:31.350Z,2.28
2022-08-29T12:30:59.445Z,2.17
2022-08-29T12:33:43.501Z,2.50
2022-08-29T12:36:31.437Z,2.40
2022-08-29T12:39:04.742Z,2.33
2022-08-29T12:42:02.786Z,1.95
2022-08-29T12:44:40.528Z,2.58
2022-08-29T12:47:24.115Z,1.85
2022-08-29T12:49:56.287Z,2.30
2022-08-29T12:52:28.271Z,2.58
2022-08-29T12:54:57.892Z,2.53
2022-08-29T12:57:37.020Z,2.00
2022-08-29T13:00:13.827Z,2.22
2022-08-29T13:02:41.186Z,2.25
2022-08-29T13:05:28.361Z,2.28
2022-08-29T13:07:59.410Z,2.25
2022-08-29T13:10:27.893Z,2.50
2022-08-29T13:13:15.828Z,2.40
2022-08-29T13:15:42.976Z,2.40
2022-08-29T13:18:16.591Z,2.30
2022-08-29T13:21:07.859Z,2.65
2022-08-29T13:23:39.040Z,2.55
2022-08-29T13:26:12.821Z,2.30
2022-08-29T13:28:47.603Z,2.60
2022-08-29T13:31:14.752Z,2.35
2022-08-29T13:33:50.923Z,2.88
2022-08-29T13:36:27.447Z,2.80
2022-08-29T13:39:21.820Z,2.40
2022-08-29T13:42:02.014Z,2.95
2022-08-29T13:44:33.918Z,2.90
2022-08-29T13:47:04.399Z,2.53
2022-08-29T13:49:34.352Z,3.35
2022-08-29T13:52:03.051Z,2.70
2022-08-29T13:54:31.424Z,2.88
2022-08-29T13:57:01.220Z,2.60
2022-08-29T13:59:34.201Z,2.90
2022-08-29T14:02:08.897Z,2.53
2022-08-29T14:04:39.201Z,2.45
2022-08-29T14:07:21.422Z,2.00
2022-08-29T14:09:49.859Z,2.15
2022-08-29T14:12:17.892Z,2.40
2022-08-29T14:14:45.428Z,2.95
2022-08-29T14:17:18.494Z,2.60
2022-08-29T14:19:47.332Z,2.15
2022-08-29T14:22:14.752Z,2.22
2022-08-29T14:24:42.578Z,2.17
2022-08-29T14:27:09.919Z,2.03
2022-08-29T14:29:37.660Z,2.78
2022-08-29T14:32:05.058Z,3.15
2022-08-29T14:34:33.116Z,2.45
2022-08-29T14:37:02.044Z,2.20
2022-08-29T14:39:29.610Z,2.40
2022-08-29T14:41:56.911Z,2.58
2022-08-29T14:44:24.057Z,2.25
2022-08-29T14:46:51.853Z,2.15
2022-08-29T14:49:19.704Z,2.17
2022-08-29T14:51:47.418Z,2.80
2022-08-29T14:54:15.035Z,2.20
2022-08-29T14:56:50.680Z,2.47
2022-08-29T14:59:20.204Z,2.00
2022-08-29T15:01:53.866Z,2.47
2022-08-29T15:04:35.441Z,2.50
2022-08-29T15:07:08.960Z,2.03
2022-08-29T15:09:36.675Z,1.88
2022-08-29T15:12:04.585Z,3.08
2022-08-29T15:14:32.152Z,2.15
2022-08-29T15:16:59.280Z,2.50
2022-08-29T15:22:13.692Z,2.50
2022-08-29T15:24:41.503Z,2.33
2022-08-29T15:27:09.594Z,2.42
2022-08-29T15:29:37.831Z,1.90
2022-08-29T15:32:05.304Z,2.30
2022-08-29T15:34:33.084Z,2.40
2022-08-29T15:37:01.701Z,2.65
2022-08-29T15:39:29.740Z,2.70
2022-08-29T15:41:59.896Z,3.20
2022-08-29T15:44:28.444Z,3.42
2022-08-29T15:46:56.722Z,3.30
2022-08-29T15:49:26.581Z,2.90
2022-08-29T15:51:55.292Z,2.67
2022-08-29T15:54:23.682Z,2.45
2022-08-29T15:56:51.249Z,4.30
2022-08-29T15:59:27.748Z,4.82
2022-08-29T16:02:03.887Z,3.80
2022-08-29T16:04:31.459Z,3.95
2022-08-29T16:06:58.821Z,3.35
2022-08-29T16:09:25.975Z,4.35
2022-08-29T16:11:53.322Z,3.88
2022-08-29T16:17:09.764Z,4.30
2022-08-29T16:19:42.047Z,3.65
2022-08-29T16:22:10.158Z,4.53
2022-08-29T16:24:38.383Z,3.88
2022-08-29T16:27:05.576Z,3.40
2022-08-29T16:29:34.055Z,2.85
2022-08-29T16:32:01.495Z,2.83
2022-08-29T16:34:29.151Z,3.17
2022-08-29T16:37:00.504Z,3.42
2022-08-29T16:39:29.065Z,3.15
2022-08-29T16:41:56.859Z,3.38
2022-08-29T16:44:24.557Z,3.47
2022-08-29T16:46:52.281Z,3.35
2022-08-29T16:49:19.688Z,3.80
2022-08-29T16:51:47.045Z,3.33
2022-08-29T16:54:15.371Z,3.10
2022-08-29T16:56:43.302Z,3.75
2022-08-29T16:59:12.573Z,3.22
2022-08-29T17:01:45.776Z,3.58
2022-08-29T17:04:19.526Z,3.83
2022-08-29T17:06:48.289Z,3.75
2022-08-29T17:09:17.872Z,3.97
2022-08-29T17:11:45.699Z,3.70
2022-08-29T17:14:13.781Z,3.60
2022-08-29T17:16:42.673Z,3.33
2022-08-29T17:19:09.840Z,3.38
2022-08-29T17:21:37.728Z,4.30
2022-08-29T17:24:09.349Z,3.55
2022-08-29T17:26:38.512Z,3.38
2022-08-29T17:29:08.867Z,3.75
2022-08-29T17:31:38.798Z,3.85
2022-08-29T17:34:07.470Z,3.35
2022-08-29T17:36:36.765Z,3.63
2022-08-29T17:39:05.841Z,3.60
2022-08-29T17:41:34.951Z,3.88
2022-08-29T17:44:02.571Z,3.30
2022-08-29T17:46:30.273Z,3.80
2022-08-29T17:48:57.570Z,3.78
2022-08-29T17:51:24.812Z,3.70
2022-08-29T17:53:52.662Z,3.72
2022-08-29T17:56:26.068Z,3.47
2022-08-29T17:58:53.520Z,3.45
2022-08-29T18:01:21.000Z,3.80
2022-08-29T18:03:48.151Z,3.63
2022-08-29T18:06:15.475Z,3.72
2022-08-29T18:08:48.047Z,3.90
2022-08-29T18:11:16.769Z,3.72
2022-08-29T18:13:44.954Z,3.20
2022-08-29T18:16:12.689Z,4.00
2022-08-29T18:18:42.140Z,3.85
2022-08-29T18:21:09.488Z,3.50
2022-08-29T18:23:37.451Z,3.90
2022-08-29T18:26:05.558Z,3.67
2022-08-29T18:28:34.198Z,3.85
2022-08-29T18:31:02.468Z,4.13
2022-08-29T18:33:44.366Z,3.40
2022-08-29T18:36:17.617Z,4.38
2022-08-29T18:38:44.809Z,3.70
2022-08-29T18:41:11.957Z,4.47
2022-08-29T18:43:39.159Z,4.07
2022-08-29T18:46:06.669Z,4.18
2022-08-29T18:48:33.854Z,3.92
2022-08-29T18:51:01.007Z,4.50
2022-08-29T18:53:31.669Z,4.68
2022-08-29T18:56:00.791Z,4.07
2022-08-29T18:58:30.170Z,4.00
2022-08-29T19:00:58.751Z,3.60
2022-08-29T19:03:26.215Z,4.18
2022-08-29T19:05:54.179Z,4.25
2022-08-29T19:08:24.873Z,4.28
2022-08-29T19:10:55.466Z,3.58
2022-08-29T19:13:25.158Z,4.30
2022-08-29T19:16:00.394Z,4.07
2022-08-29T19:18:28.042Z,4.00
2022-08-29T19:21:07.633Z,3.78
2022-08-29T19:23:41.221Z,4.35
2022-08-29T19:26:15.258Z,4.20
2022-08-29T19:28:43.370Z,3.53
2022-08-29T19:31:11.299Z,3.97
2022-08-29T19:33:42.098Z,3.72
2022-08-29T19:36:09.447Z,3.65
2022-08-29T19:38:36.867Z,3.92
2022-08-29T19:41:05.847Z,4.20
2022-08-29T19:43:34.530Z,4.30
2022-08-29T19:46:02.838Z,4.38
2022-08-29T19:48:30.090Z,4.78
2022-08-29T19:50:57.325Z,4.47
2022-08-29T19:53:26.928Z,4.30
2022-08-29T19:55:56.551Z,5.88
2022-08-29T19:58:31.078Z,4.82
2022-08-29T20:01:04.618Z,5.32
2022-08-29T20:03:37.617Z,5.40
2022-08-29T20:06:06.950Z,4.75
2022-08-29T20:08:39.875Z,3.92
2022-08-29T20:11:11.188Z,4.15
2022-08-29T20:13:39.965Z,4.72
2022-08-29T20:16:12.750Z,3.85
2022-08-29T20:18:42.306Z,4.40
2022-08-29T20:21:12.583Z,3.67
2022-08-29T20:23:49.525Z,3.65
2022-08-29T20:26:20.742Z,3.60
2022-08-29T20:28:49.652Z,4.05
2022-08-29T20:31:16.993Z,4.03
2022-08-29T20:33:44.879Z,3.42
2022-08-29T20:36:30.973Z,3.72
2022-08-29T20:38:58.300Z,3.67
2022-08-29T20:41:25.920Z,4.13
2022-08-29T20:43:53.644Z,3.47
2022-08-29T20:46:21.250Z,3.80
2022-08-29T20:48:48.539Z,3.70
2022-08-29T20:51:16.755Z,3.55
2022-08-29T20:53:44.124Z,3.90
2022-08-29T20:56:12.216Z,3.78
2022-08-29T20:58:39.400Z,3.50
2022-08-29T21:01:06.582Z,3.47
2022-08-29T21:03:52.808Z,3.53
2022-08-29T21:06:21.381Z,3.38
2022-08-29T21:08:48.928Z,3.65
2022-08-29T21:11:16.528Z,3.58
2022-08-29T21:13:43.794Z,3.63
2022-08-29T21:16:11.665Z,3.47
2022-08-29T21:18:39.597Z,3.97
2022-08-29T21:21:07.319Z,3.25
2022-08-29T21:23:34.518Z,3.67
2022-08-29T21:26:02.068Z,3.35
2022-08-29T21:28:32.947Z,3.40
2022-08-29T21:31:14.013Z,3.03
2022-08-29T21:33:44.592Z,3.47
2022-08-29T21:36:14.807Z,3.75
2022-08-29T21:38:42.051Z,3.88
2022-08-29T21:41:13.340Z,3.33
2022-08-29T21:43:41.253Z,3.72
2022-08-29T21:46:29.547Z,3.15
2022-08-29T21:49:02.413Z,3.35
2022-08-29T21:51:31.601Z,3.20
2022-08-29T21:53:59.851Z,2.85
2022-08-29T21:56:29.763Z,3.03
2022-08-29T21:58:57.372Z,3.28
2022-08-29T22:01:27.927Z,3.17
2022-08-29T22:03:56.198Z,3.22
2022-08-29T22:06:23.909Z,2.97
2022-08-29T22:08:56.393Z,3.60
2022-08-29T22:11:37.172Z,3.40
2022-08-29T22:14:06.779Z,3.33
2022-08-29T22:16:35.663Z,2.90
2022-08-29T22:19:14.539Z,3.83
2022-08-29T22:21:51.880Z,3.20
2022-08-29T22:24:19.223Z,3.40
2022-08-29T22:26:47.388Z,3.30
2022-08-29T22:29:16.255Z,3.75
2022-08-29T22:31:44.853Z,2.90
2022-08-29T22:34:14.428Z,2.90
2022-08-29T22:36:42.378Z,2.58
2022-08-29T22:39:10.732Z,3.33
2022-08-29T22:41:38.307Z,3.65
2022-08-29T22:46:54.137Z,3.33
2022-08-29T22:49:21.478Z,2.97
2022-08-29T22:51:49.097Z,3.10
2022-08-29T22:54:35.012Z,3.42
2022-08-29T22:57:07.495Z,3.50
2022-08-29T22:59:35.622Z,2.60
2022-08-29T23:02:04.170Z,3.83
2022-08-29T23:04:35.496Z,3.40
2022-08-29T23:07:22.281Z,3.40
2022-08-29T23:09:56.597Z,3.47
2022-08-29T23:12:27.356Z,3.63
2022-08-29T23:14:54.765Z,3.22
2022-08-29T23:17:24.946Z,3.10
2022-08-29T23:19:52.431Z,3.38
2022-08-29T23:22:23.566Z,3.28
2022-08-29T23:24:57.610Z,3.03
2022-08-29T23:27:28.799Z,3.17
2022-08-29T23:29:57.068Z,3.28
2022-08-29T23:32:33.237Z,3.33
2022-08-29T23:35:05.843Z,3.10
2022-08-29T23:37:39.108Z,3.83
2022-08-29T23:40:11.897Z,3.30
2022-08-29T23:42:39.075Z,3.83
2022-08-29T23:45:07.034Z,3.75
2022-08-29T23:47:35.535Z,3.47
2022-08-29T23:50:04.819Z,3.35
2022-08-29T23:52:32.163Z,3.70
2022-08-29T23:55:00.818Z,3.58
2022-08-29T23:57:28.019Z,4.05
